sensor_id;sensor_type;location;lat;lon;timestamp;P1;durP1;ratioP1;P2;durP2;ratioP2
23555;SDS011;11956;53.184;8.578;2023-03-14T00:02:44;18.38;;;3.85;;
23555;SDS011;11956;53.184;8.578;2023-03-14T00:05:45;20.65;;;3.80;;
23555;SDS011;11956;53.184;8.578;2023-03-14T00:08:46;21.00;;;3.55;;
23555;SDS011;11956;53.184;8.578;2023-03-14T00:11:47;21.05;;;3.42;;
23555;SDS011;11956;53.184;8.578;2023-03-14T00:14:48;21.02;;;3.50;;
23555;SDS011;11956;53.184;8.578;2023-03-14T00:17:49;17.52;;;3.67;;
23555;SDS011;11956;53.184;8.578;2023-03-14T00:20:50;18.60;;;4.25;;
23555;SDS011;11956;53.184;8.578;2023-03-14T00:23:51;16.92;;;3.65;;
23555;SDS011;11956;53.184;8.578;2023-03-14T00:26:52;21.08;;;3.55;;
23555;SDS011;11956;53.184;8.578;2023-03-14T00:29:53;15.98;;;3.47;;
23555;SDS011;11956;53.184;8.578;2023-03-14T00:32:54;19.55;;;3.05;;
23555;SDS011;11956;53.184;8.578;2023-03-14T00:35:57;22.88;;;4.13;;
23555;SDS011;11956;53.184;8.578;2023-03-14T00:39:03;19.25;;;3.70;;
23555;SDS011;11956;53.184;8.578;2023-03-14T00:42:05;14.55;;;3.03;;
23555;SDS011;11956;53.184;8.578;2023-03-14T00:45:06;16.55;;;3.15;;
23555;SDS011;11956;53.184;8.578;2023-03-14T00:48:08;13.00;;;2.80;;
23555;SDS011;11956;53.184;8.578;2023-03-14T00:51:10;11.07;;;2.90;;
23555;SDS011;11956;53.184;8.578;2023-03-14T00:54:17;15.35;;;3.20;;
23555;SDS011;11956;53.184;8.578;2023-03-14T00:57:19;11.93;;;3.42;;
23555;SDS011;11956;53.184;8.578;2023-03-14T01:00:20;14.00;;;3.03;;
23555;SDS011;11956;53.184;8.578;2023-03-14T01:03:21;10.45;;;2.90;;
23555;SDS011;11956;53.184;8.578;2023-03-14T01:06:25;10.85;;;3.05;;
23555;SDS011;11956;53.184;8.578;2023-03-14T01:09:28;13.73;;;3.67;;
23555;SDS011;11956;53.184;8.578;2023-03-14T01:12:29;11.10;;;2.97;;
23555;SDS011;11956;53.184;8.578;2023-03-14T01:15:31;12.63;;;2.90;;
23555;SDS011;11956;53.184;8.578;2023-03-14T01:18:37;10.18;;;3.40;;
23555;SDS011;11956;53.184;8.578;2023-03-14T01:21:40;13.98;;;3.78;;
23555;SDS011;11956;53.184;8.578;2023-03-14T01:24:41;11.82;;;3.20;;
23555;SDS011;11956;53.184;8.578;2023-03-14T01:27:42;10.02;;;2.97;;
23555;SDS011;11956;53.184;8.578;2023-03-14T01:30:44;12.68;;;3.97;;
23555;SDS011;11956;53.184;8.578;2023-03-14T01:33:46;12.38;;;3.50;;
23555;SDS011;11956;53.184;8.578;2023-03-14T01:36:47;12.23;;;4.05;;
23555;SDS011;11956;53.184;8.578;2023-03-14T01:39:48;14.45;;;3.95;;
23555;SDS011;11956;53.184;8.578;2023-03-14T01:42:56;11.25;;;3.67;;
23555;SDS011;11956;53.184;8.578;2023-03-14T01:52:16;14.05;;;4.50;;
23555;SDS011;11956;53.184;8.578;2023-03-14T01:55:24;12.85;;;4.47;;
23555;SDS011;11956;53.184;8.578;2023-03-14T01:58:26;11.48;;;4.20;;
23555;SDS011;11956;53.184;8.578;2023-03-14T02:01:32;12.05;;;4.55;;
23555;SDS011;11956;53.184;8.578;2023-03-14T02:04:36;11.20;;;4.65;;
23555;SDS011;11956;53.184;8.578;2023-03-14T02:07:49;11.30;;;4.40;;
23555;SDS011;11956;53.184;8.578;2023-03-14T02:11:00;11.23;;;4.80;;
23555;SDS011;11956;53.184;8.578;2023-03-14T02:14:36;9.15;;;4.35;;
23555;SDS011;11956;53.184;8.578;2023-03-14T02:17:52;13.75;;;4.85;;
23555;SDS011;11956;53.184;8.578;2023-03-14T02:27:47;12.13;;;3.97;;
23555;SDS011;11956;53.184;8.578;2023-03-14T02:30:49;12.73;;;4.45;;
23555;SDS011;11956;53.184;8.578;2023-03-14T02:33:50;10.13;;;4.13;;
23555;SDS011;11956;53.184;8.578;2023-03-14T02:36:52;11.65;;;4.20;;
23555;SDS011;11956;53.184;8.578;2023-03-14T02:39:53;13.10;;;4.03;;
23555;SDS011;11956;53.184;8.578;2023-03-14T02:42:54;13.13;;;4.18;;
23555;SDS011;11956;53.184;8.578;2023-03-14T02:45:55;7.82;;;3.55;;
23555;SDS011;11956;53.184;8.578;2023-03-14T02:52:11;9.27;;;3.58;;
23555;SDS011;11956;53.184;8.578;2023-03-14T02:55:12;12.93;;;3.65;;
23555;SDS011;11956;53.184;8.578;2023-03-14T02:58:16;11.52;;;3.70;;
23555;SDS011;11956;53.184;8.578;2023-03-14T03:01:21;10.63;;;4.10;;
23555;SDS011;11956;53.184;8.578;2023-03-14T03:04:22;12.52;;;4.18;;
23555;SDS011;11956;53.184;8.578;2023-03-14T03:07:23;13.73;;;4.63;;
23555;SDS011;11956;53.184;8.578;2023-03-14T03:10:24;15.77;;;5.15;;
23555;SDS011;11956;53.184;8.578;2023-03-14T03:13:25;9.98;;;3.97;;
23555;SDS011;11956;53.184;8.578;2023-03-14T03:16:28;18.73;;;5.07;;
23555;SDS011;11956;53.184;8.578;2023-03-14T03:19:30;13.77;;;4.30;;
23555;SDS011;11956;53.184;8.578;2023-03-14T03:22:32;11.48;;;4.57;;
23555;SDS011;11956;53.184;8.578;2023-03-14T03:25:33;16.42;;;4.38;;
23555;SDS011;11956;53.184;8.578;2023-03-14T03:28:37;10.32;;;3.67;;
23555;SDS011;11956;53.184;8.578;2023-03-14T03:31:39;12.52;;;3.28;;
23555;SDS011;11956;53.184;8.578;2023-03-14T03:34:40;6.43;;;1.70;;
23555;SDS011;11956;53.184;8.578;2023-03-14T03:37:41;7.93;;;1.52;;
23555;SDS011;11956;53.184;8.578;2023-03-14T03:40:42;5.00;;;1.08;;
23555;SDS011;11956;53.184;8.578;2023-03-14T03:43:44;4.53;;;1.02;;
23555;SDS011;11956;53.184;8.578;2023-03-14T03:46:48;2.88;;;0.98;;
23555;SDS011;11956;53.184;8.578;2023-03-14T03:49:49;5.40;;;1.30;;
23555;SDS011;11956;53.184;8.578;2023-03-14T03:52:50;9.77;;;1.98;;
23555;SDS011;11956;53.184;8.578;2023-03-14T03:55:51;4.88;;;1.10;;
23555;SDS011;11956;53.184;8.578;2023-03-14T03:58:52;6.70;;;1.60;;
23555;SDS011;11956;53.184;8.578;2023-03-14T04:01:53;8.48;;;2.17;;
23555;SDS011;11956;53.184;8.578;2023-03-14T04:04:54;8.15;;;2.80;;
23555;SDS011;11956;53.184;8.578;2023-03-14T04:07:55;7.03;;;2.50;;
23555;SDS011;11956;53.184;8.578;2023-03-14T04:11:01;12.25;;;3.08;;
23555;SDS011;11956;53.184;8.578;2023-03-14T04:14:20;13.30;;;3.08;;
23555;SDS011;11956;53.184;8.578;2023-03-14T04:17:27;8.68;;;2.85;;
23555;SDS011;11956;53.184;8.578;2023-03-14T04:20:28;9.77;;;3.08;;
23555;SDS011;11956;53.184;8.578;2023-03-14T04:23:29;7.15;;;2.83;;
23555;SDS011;11956;53.184;8.578;2023-03-14T04:26:30;7.35;;;2.60;;
23555;SDS011;11956;53.184;8.578;2023-03-14T04:29:31;8.95;;;2.65;;
23555;SDS011;11956;53.184;8.578;2023-03-14T04:32:32;7.72;;;3.00;;
23555;SDS011;11956;53.184;8.578;2023-03-14T04:35:34;11.38;;;3.38;;
23555;SDS011;11956;53.184;8.578;2023-03-14T04:38:41;8.40;;;3.22;;
23555;SDS011;11956;53.184;8.578;2023-03-14T04:41:44;9.77;;;3.90;;
23555;SDS011;11956;53.184;8.578;2023-03-14T04:44:45;12.40;;;4.75;;
23555;SDS011;11956;53.184;8.578;2023-03-14T04:47:50;9.52;;;2.60;;
23555;SDS011;11956;53.184;8.578;2023-03-14T04:50:53;10.32;;;2.53;;
23555;SDS011;11956;53.184;8.578;2023-03-14T04:53:55;7.80;;;2.20;;
23555;SDS011;11956;53.184;8.578;2023-03-14T04:56:56;9.85;;;2.40;;
23555;SDS011;11956;53.184;8.578;2023-03-14T04:59:59;6.45;;;2.45;;
23555;SDS011;11956;53.184;8.578;2023-03-14T05:03:29;8.50;;;2.90;;
23555;SDS011;11956;53.184;8.578;2023-03-14T05:06:41;9.23;;;2.90;;
23555;SDS011;11956;53.184;8.578;2023-03-14T05:10:02;10.38;;;2.58;;
23555;SDS011;11956;53.184;8.578;2023-03-14T05:13:37;8.82;;;2.83;;
23555;SDS011;11956;53.184;8.578;2023-03-14T05:16:54;10.35;;;3.40;;
23555;SDS011;11956;53.184;8.578;2023-03-14T05:20:07;9.88;;;3.15;;
23555;SDS011;11956;53.184;8.578;2023-03-14T05:23:28;10.48;;;2.85;;
23555;SDS011;11956;53.184;8.578;2023-03-14T05:26:49;9.35;;;2.50;;
23555;SDS011;11956;53.184;8.578;2023-03-14T05:30:02;7.65;;;2.40;;
23555;SDS011;11956;53.184;8.578;2023-03-14T05:33:31;8.88;;;2.50;;
23555;SDS011;11956;53.184;8.578;2023-03-14T05:36:43;11.25;;;3.70;;
23555;SDS011;11956;53.184;8.578;2023-03-14T05:40:07;11.07;;;2.80;;
23555;SDS011;11956;53.184;8.578;2023-03-14T05:43:16;9.30;;;3.28;;
23555;SDS011;11956;53.184;8.578;2023-03-14T05:46:33;10.90;;;3.47;;
23555;SDS011;11956;53.184;8.578;2023-03-14T05:49:48;13.27;;;4.20;;
23555;SDS011;11956;53.184;8.578;2023-03-14T05:53:11;13.75;;;3.25;;
23555;SDS011;11956;53.184;8.578;2023-03-14T05:56:23;12.18;;;3.40;;
23555;SDS011;11956;53.184;8.578;2023-03-14T05:59:31;9.60;;;3.25;;
23555;SDS011;11956;53.184;8.578;2023-03-14T06:03:10;12.40;;;3.20;;
23555;SDS011;11956;53.184;8.578;2023-03-14T06:06:16;9.15;;;2.92;;
23555;SDS011;11956;53.184;8.578;2023-03-14T06:09:17;8.40;;;2.47;;
23555;SDS011;11956;53.184;8.578;2023-03-14T06:12:20;6.63;;;2.03;;
23555;SDS011;11956;53.184;8.578;2023-03-14T06:15:21;10.38;;;2.65;;
23555;SDS011;11956;53.184;8.578;2023-03-14T06:18:25;9.05;;;2.10;;
23555;SDS011;11956;53.184;8.578;2023-03-14T06:21:27;8.65;;;2.08;;
23555;SDS011;11956;53.184;8.578;2023-03-14T06:24:29;8.73;;;2.20;;
23555;SDS011;11956;53.184;8.578;2023-03-14T06:27:30;7.55;;;2.80;;
23555;SDS011;11956;53.184;8.578;2023-03-14T06:30:32;11.35;;;2.42;;
23555;SDS011;11956;53.184;8.578;2023-03-14T06:33:33;10.10;;;2.80;;
23555;SDS011;11956;53.184;8.578;2023-03-14T06:36:34;8.07;;;2.45;;
23555;SDS011;11956;53.184;8.578;2023-03-14T06:39:36;11.25;;;2.53;;
23555;SDS011;11956;53.184;8.578;2023-03-14T06:42:47;12.30;;;3.72;;
23555;SDS011;11956;53.184;8.578;2023-03-14T06:45:50;15.90;;;3.22;;
23555;SDS011;11956;53.184;8.578;2023-03-14T06:48:51;10.68;;;2.65;;
23555;SDS011;11956;53.184;8.578;2023-03-14T06:51:52;15.38;;;3.30;;
23555;SDS011;11956;53.184;8.578;2023-03-14T06:54:53;9.55;;;2.40;;
23555;SDS011;11956;53.184;8.578;2023-03-14T06:57:57;14.40;;;3.20;;
23555;SDS011;11956;53.184;8.578;2023-03-14T07:00:58;12.05;;;2.85;;
23555;SDS011;11956;53.184;8.578;2023-03-14T07:04:04;9.75;;;2.45;;
23555;SDS011;11956;53.184;8.578;2023-03-14T07:07:07;11.55;;;2.97;;
23555;SDS011;11956;53.184;8.578;2023-03-14T07:26:34;9.15;;;2.10;;
23555;SDS011;11956;53.184;8.578;2023-03-14T07:29:36;10.05;;;2.80;;
23555;SDS011;11956;53.184;8.578;2023-03-14T07:32:38;12.13;;;3.35;;
23555;SDS011;11956;53.184;8.578;2023-03-14T07:35:39;12.35;;;3.50;;
23555;SDS011;11956;53.184;8.578;2023-03-14T07:38:40;10.43;;;2.20;;
23555;SDS011;11956;53.184;8.578;2023-03-14T07:42:00;9.20;;;2.28;;
23555;SDS011;11956;53.184;8.578;2023-03-14T07:45:01;9.60;;;2.63;;
23555;SDS011;11956;53.184;8.578;2023-03-14T07:48:03;9.48;;;2.70;;
23555;SDS011;11956;53.184;8.578;2023-03-14T07:51:03;10.00;;;2.13;;
23555;SDS011;11956;53.184;8.578;2023-03-14T07:54:05;9.80;;;2.90;;
23555;SDS011;11956;53.184;8.578;2023-03-14T07:57:06;9.93;;;2.45;;
23555;SDS011;11956;53.184;8.578;2023-03-14T08:00:07;12.63;;;2.53;;
23555;SDS011;11956;53.184;8.578;2023-03-14T08:03:13;8.93;;;2.97;;
23555;SDS011;11956;53.184;8.578;2023-03-14T08:06:14;9.20;;;2.60;;
23555;SDS011;11956;53.184;8.578;2023-03-14T08:09:15;11.52;;;2.90;;
23555;SDS011;11956;53.184;8.578;2023-03-14T08:12:16;10.88;;;2.30;;
23555;SDS011;11956;53.184;8.578;2023-03-14T08:15:17;9.75;;;2.17;;
23555;SDS011;11956;53.184;8.578;2023-03-14T08:18:18;8.43;;;2.15;;
23555;SDS011;11956;53.184;8.578;2023-03-14T08:21:19;10.13;;;2.40;;
23555;SDS011;11956;53.184;8.578;2023-03-14T08:24:20;7.32;;;2.20;;
23555;SDS011;11956;53.184;8.578;2023-03-14T08:27:20;8.93;;;1.73;;
23555;SDS011;11956;53.184;8.578;2023-03-14T08:30:21;12.00;;;2.50;;
23555;SDS011;11956;53.184;8.578;2023-03-14T08:33:24;11.57;;;2.58;;
23555;SDS011;11956;53.184;8.578;2023-03-14T08:36:26;7.67;;;2.10;;
23555;SDS011;11956;53.184;8.578;2023-03-14T08:39:27;10.23;;;2.08;;
23555;SDS011;11956;53.184;8.578;2023-03-14T08:42:28;5.90;;;1.40;;
23555;SDS011;11956;53.184;8.578;2023-03-14T08:45:29;8.00;;;1.88;;
23555;SDS011;11956;53.184;8.578;2023-03-14T08:48:30;6.53;;;1.70;;
23555;SDS011;11956;53.184;8.578;2023-03-14T08:51:31;3.53;;;0.80;;
23555;SDS011;11956;53.184;8.578;2023-03-14T08:54:32;4.70;;;0.57;;
23555;SDS011;11956;53.184;8.578;2023-03-14T08:57:33;4.75;;;0.90;;
23555;SDS011;11956;53.184;8.578;2023-03-14T09:00:34;6.07;;;0.82;;
23555;SDS011;11956;53.184;8.578;2023-03-14T09:03:35;8.90;;;1.13;;
23555;SDS011;11956;53.184;8.578;2023-03-14T09:06:36;7.00;;;1.10;;
23555;SDS011;11956;53.184;8.578;2023-03-14T09:09:37;7.25;;;0.93;;
23555;SDS011;11956;53.184;8.578;2023-03-14T09:12:38;5.78;;;0.85;;
23555;SDS011;11956;53.184;8.578;2023-03-14T09:15:38;6.22;;;1.10;;
23555;SDS011;11956;53.184;8.578;2023-03-14T09:18:42;6.70;;;1.23;;
23555;SDS011;11956;53.184;8.578;2023-03-14T09:21:43;8.25;;;0.80;;
23555;SDS011;11956;53.184;8.578;2023-03-14T09:24:44;5.40;;;0.60;;
23555;SDS011;11956;53.184;8.578;2023-03-14T09:27:44;4.68;;;0.43;;
23555;SDS011;11956;53.184;8.578;2023-03-14T09:30:45;4.88;;;0.50;;
23555;SDS011;11956;53.184;8.578;2023-03-14T09:33:46;3.10;;;0.30;;
23555;SDS011;11956;53.184;8.578;2023-03-14T09:36:47;2.15;;;0.22;;
23555;SDS011;11956;53.184;8.578;2023-03-14T09:39:48;1.75;;;0.40;;
23555;SDS011;11956;53.184;8.578;2023-03-14T09:42:52;0.75;;;0.40;;
23555;SDS011;11956;53.184;8.578;2023-03-14T09:45:55;2.08;;;0.50;;
23555;SDS011;11956;53.184;8.578;2023-03-14T09:48:58;5.78;;;2.22;;
23555;SDS011;11956;53.184;8.578;2023-03-14T09:52:01;3.30;;;0.45;;
23555;SDS011;11956;53.184;8.578;2023-03-14T09:55:11;1.77;;;0.60;;
23555;SDS011;11956;53.184;8.578;2023-03-14T09:58:19;2.88;;;0.57;;
23555;SDS011;11956;53.184;8.578;2023-03-14T10:01:24;3.25;;;0.40;;
23555;SDS011;11956;53.184;8.578;2023-03-14T10:04:28;4.43;;;0.47;;
23555;SDS011;11956;53.184;8.578;2023-03-14T10:07:30;2.47;;;0.60;;
23555;SDS011;11956;53.184;8.578;2023-03-14T10:10:32;5.32;;;0.90;;
23555;SDS011;11956;53.184;8.578;2023-03-14T10:13:33;3.65;;;0.47;;
23555;SDS011;11956;53.184;8.578;2023-03-14T10:16:36;2.92;;;0.40;;
23555;SDS011;11956;53.184;8.578;2023-03-14T10:23:33;4.85;;;0.68;;
23555;SDS011;11956;53.184;8.578;2023-03-14T10:26:35;7.53;;;0.70;;
23555;SDS011;11956;53.184;8.578;2023-03-14T10:29:51;7.40;;;0.70;;
23555;SDS011;11956;53.184;8.578;2023-03-14T10:32:59;4.53;;;0.65;;
23555;SDS011;11956;53.184;8.578;2023-03-14T10:36:20;5.60;;;0.60;;
23555;SDS011;11956;53.184;8.578;2023-03-14T10:39:42;2.60;;;0.47;;
23555;SDS011;11956;53.184;8.578;2023-03-14T10:42:48;6.53;;;0.63;;
23555;SDS011;11956;53.184;8.578;2023-03-14T10:45:51;4.63;;;1.00;;
23555;SDS011;11956;53.184;8.578;2023-03-14T10:49:05;4.38;;;0.93;;
23555;SDS011;11956;53.184;8.578;2023-03-14T10:55:19;9.35;;;1.05;;
23555;SDS011;11956;53.184;8.578;2023-03-14T10:58:21;7.15;;;0.93;;
23555;SDS011;11956;53.184;8.578;2023-03-14T11:09:00;4.15;;;0.90;;
23555;SDS011;11956;53.184;8.578;2023-03-14T11:12:36;6.75;;;0.65;;
23555;SDS011;11956;53.184;8.578;2023-03-14T11:19:22;7.57;;;0.80;;
23555;SDS011;11956;53.184;8.578;2023-03-14T11:36:03;10.65;;;1.23;;
23555;SDS011;11956;53.184;8.578;2023-03-14T11:39:11;14.00;;;2.20;;
23555;SDS011;11956;53.184;8.578;2023-03-14T11:42:16;9.68;;;1.55;;
23555;SDS011;11956;53.184;8.578;2023-03-14T11:45:18;11.10;;;2.00;;
23555;SDS011;11956;53.184;8.578;2023-03-14T11:52:16;13.05;;;1.73;;
23555;SDS011;11956;53.184;8.578;2023-03-14T11:55:25;17.35;;;2.08;;
23555;SDS011;11956;53.184;8.578;2023-03-14T12:01:40;20.40;;;2.53;;
23555;SDS011;11956;53.184;8.578;2023-03-14T12:11:54;16.35;;;2.83;;
23555;SDS011;11956;53.184;8.578;2023-03-14T12:15:00;22.83;;;3.60;;
23555;SDS011;11956;53.184;8.578;2023-03-14T12:18:03;16.60;;;2.75;;
23555;SDS011;11956;53.184;8.578;2023-03-14T12:21:05;15.77;;;2.45;;
23555;SDS011;11956;53.184;8.578;2023-03-14T12:24:14;15.88;;;2.33;;
23555;SDS011;11956;53.184;8.578;2023-03-14T12:30:46;15.48;;;2.28;;
23555;SDS011;11956;53.184;8.578;2023-03-14T12:33:47;17.70;;;2.25;;
23555;SDS011;11956;53.184;8.578;2023-03-14T12:36:51;18.55;;;3.00;;
23555;SDS011;11956;53.184;8.578;2023-03-14T12:43:24;13.43;;;1.70;;
23555;SDS011;11956;53.184;8.578;2023-03-14T12:46:33;12.65;;;1.88;;
23555;SDS011;11956;53.184;8.578;2023-03-14T12:49:34;13.70;;;2.20;;
23555;SDS011;11956;53.184;8.578;2023-03-14T12:56:17;16.35;;;2.03;;
23555;SDS011;11956;53.184;8.578;2023-03-14T12:59:40;9.65;;;1.70;;
23555;SDS011;11956;53.184;8.578;2023-03-14T13:03:02;11.98;;;1.80;;
23555;SDS011;11956;53.184;8.578;2023-03-14T13:10:00;10.38;;;2.50;;
23555;SDS011;11956;53.184;8.578;2023-03-14T13:13:23;15.50;;;2.33;;
23555;SDS011;11956;53.184;8.578;2023-03-14T13:16:27;10.00;;;2.00;;
23555;SDS011;11956;53.184;8.578;2023-03-14T13:19:29;10.65;;;1.75;;
23555;SDS011;11956;53.184;8.578;2023-03-14T13:22:33;11.75;;;2.03;;
23555;SDS011;11956;53.184;8.578;2023-03-14T13:25:37;15.50;;;2.13;;
23555;SDS011;11956;53.184;8.578;2023-03-14T13:28:37;12.35;;;1.67;;
23555;SDS011;11956;53.184;8.578;2023-03-14T13:31:38;9.00;;;1.67;;
23555;SDS011;11956;53.184;8.578;2023-03-14T13:34:46;9.98;;;1.77;;
23555;SDS011;11956;53.184;8.578;2023-03-14T13:37:53;8.40;;;1.77;;
23555;SDS011;11956;53.184;8.578;2023-03-14T13:41:00;10.55;;;1.50;;
23555;SDS011;11956;53.184;8.578;2023-03-14T13:44:07;8.55;;;2.03;;
23555;SDS011;11956;53.184;8.578;2023-03-14T13:47:14;7.88;;;1.35;;
23555;SDS011;11956;53.184;8.578;2023-03-14T13:50:18;9.55;;;1.17;;
23555;SDS011;11956;53.184;8.578;2023-03-14T13:53:19;6.90;;;1.17;;
23555;SDS011;11956;53.184;8.578;2023-03-14T13:56:21;7.65;;;1.35;;
23555;SDS011;11956;53.184;8.578;2023-03-14T13:59:25;7.72;;;1.30;;
23555;SDS011;11956;53.184;8.578;2023-03-14T14:02:29;9.57;;;1.58;;
23555;SDS011;11956;53.184;8.578;2023-03-14T14:05:31;12.85;;;1.58;;
23555;SDS011;11956;53.184;8.578;2023-03-14T14:08:34;12.43;;;1.90;;
23555;SDS011;11956;53.184;8.578;2023-03-14T14:14:57;16.05;;;2.30;;
23555;SDS011;11956;53.184;8.578;2023-03-14T14:18:12;9.32;;;1.60;;
23555;SDS011;11956;53.184;8.578;2023-03-14T14:21:17;14.32;;;1.90;;
23555;SDS011;11956;53.184;8.578;2023-03-14T14:24:28;11.90;;;1.83;;
23555;SDS011;11956;53.184;8.578;2023-03-14T14:27:35;9.93;;;1.48;;
23555;SDS011;11956;53.184;8.578;2023-03-14T14:30:39;9.85;;;1.70;;
23555;SDS011;11956;53.184;8.578;2023-03-14T14:33:41;12.43;;;1.75;;
23555;SDS011;11956;53.184;8.578;2023-03-14T14:36:44;12.63;;;1.88;;
23555;SDS011;11956;53.184;8.578;2023-03-14T14:39:50;13.45;;;1.85;;
23555;SDS011;11956;53.184;8.578;2023-03-14T14:43:03;13.40;;;1.60;;
23555;SDS011;11956;53.184;8.578;2023-03-14T14:46:06;9.82;;;1.30;;
23555;SDS011;11956;53.184;8.578;2023-03-14T14:49:16;6.82;;;1.35;;
23555;SDS011;11956;53.184;8.578;2023-03-14T14:52:21;11.43;;;1.25;;
23555;SDS011;11956;53.184;8.578;2023-03-14T14:55:41;10.48;;;1.55;;
23555;SDS011;11956;53.184;8.578;2023-03-14T14:58:46;9.93;;;1.58;;
23555;SDS011;11956;53.184;8.578;2023-03-14T15:01:47;8.13;;;1.45;;
23555;SDS011;11956;53.184;8.578;2023-03-14T15:04:51;10.35;;;1.55;;
23555;SDS011;11956;53.184;8.578;2023-03-14T15:07:52;9.52;;;1.30;;
23555;SDS011;11956;53.184;8.578;2023-03-14T15:10:54;11.15;;;1.70;;
23555;SDS011;11956;53.184;8.578;2023-03-14T15:13:55;13.07;;;1.60;;
23555;SDS011;11956;53.184;8.578;2023-03-14T15:16:56;8.60;;;1.70;;
23555;SDS011;11956;53.184;8.578;2023-03-14T15:19:57;11.73;;;1.88;;
23555;SDS011;11956;53.184;8.578;2023-03-14T15:22:58;12.73;;;2.40;;
23555;SDS011;11956;53.184;8.578;2023-03-14T15:25:59;11.90;;;1.67;;
23555;SDS011;11956;53.184;8.578;2023-03-14T15:29:00;15.32;;;1.98;;
23555;SDS011;11956;53.184;8.578;2023-03-14T15:32:01;17.60;;;2.13;;
23555;SDS011;11956;53.184;8.578;2023-03-14T15:35:02;12.10;;;1.80;;
23555;SDS011;11956;53.184;8.578;2023-03-14T15:38:03;9.27;;;1.55;;
23555;SDS011;11956;53.184;8.578;2023-03-14T15:41:04;9.85;;;1.73;;
23555;SDS011;11956;53.184;8.578;2023-03-14T15:44:05;9.23;;;1.40;;
23555;SDS011;11956;53.184;8.578;2023-03-14T15:47:06;7.20;;;1.30;;
23555;SDS011;11956;53.184;8.578;2023-03-14T15:50:10;10.90;;;1.40;;
23555;SDS011;11956;53.184;8.578;2023-03-14T15:53:11;10.85;;;1.50;;
23555;SDS011;11956;53.184;8.578;2023-03-14T15:56:15;8.70;;;1.20;;
23555;SDS011;11956;53.184;8.578;2023-03-14T15:59:18;9.88;;;1.60;;
23555;SDS011;11956;53.184;8.578;2023-03-14T16:02:19;7.07;;;1.63;;
23555;SDS011;11956;53.184;8.578;2023-03-14T16:05:20;7.78;;;1.80;;
23555;SDS011;11956;53.184;8.578;2023-03-14T16:08:22;9.73;;;1.65;;
23555;SDS011;11956;53.184;8.578;2023-03-14T16:11:25;11.88;;;1.75;;
23555;SDS011;11956;53.184;8.578;2023-03-14T16:14:26;9.95;;;1.88;;
23555;SDS011;11956;53.184;8.578;2023-03-14T16:17:27;10.60;;;2.03;;
23555;SDS011;11956;53.184;8.578;2023-03-14T16:20:28;5.85;;;1.25;;
23555;SDS011;11956;53.184;8.578;2023-03-14T16:23:29;11.60;;;1.60;;
23555;SDS011;11956;53.184;8.578;2023-03-14T16:26:30;12.65;;;2.03;;
23555;SDS011;11956;53.184;8.578;2023-03-14T16:29:34;13.23;;;1.90;;
23555;SDS011;11956;53.184;8.578;2023-03-14T16:32:35;7.32;;;1.40;;
23555;SDS011;11956;53.184;8.578;2023-03-14T16:35:36;8.20;;;1.33;;
23555;SDS011;11956;53.184;8.578;2023-03-14T16:38:38;9.20;;;1.75;;
23555;SDS011;11956;53.184;8.578;2023-03-14T16:44:42;9.55;;;1.40;;
23555;SDS011;11956;53.184;8.578;2023-03-14T16:47:42;9.52;;;1.73;;
23555;SDS011;11956;53.184;8.578;2023-03-14T16:50:43;9.13;;;1.50;;
23555;SDS011;11956;53.184;8.578;2023-03-14T16:53:44;14.30;;;2.58;;
23555;SDS011;11956;53.184;8.578;2023-03-14T16:56:46;9.98;;;1.60;;
23555;SDS011;11956;53.184;8.578;2023-03-14T16:59:48;9.18;;;1.73;;
23555;SDS011;11956;53.184;8.578;2023-03-14T17:02:49;9.18;;;1.25;;
23555;SDS011;11956;53.184;8.578;2023-03-14T17:05:50;8.02;;;1.65;;
23555;SDS011;11956;53.184;8.578;2023-03-14T17:08:52;9.57;;;1.95;;
23555;SDS011;11956;53.184;8.578;2023-03-14T17:11:54;10.50;;;1.90;;
23555;SDS011;11956;53.184;8.578;2023-03-14T17:14:55;8.82;;;1.98;;
23555;SDS011;11956;53.184;8.578;2023-03-14T17:17:59;9.95;;;2.33;;
23555;SDS011;11956;53.184;8.578;2023-03-14T17:21:02;9.52;;;1.60;;
23555;SDS011;11956;53.184;8.578;2023-03-14T17:24:04;10.07;;;1.90;;
23555;SDS011;11956;53.184;8.578;2023-03-14T17:27:05;9.35;;;1.38;;
23555;SDS011;11956;53.184;8.578;2023-03-14T17:30:06;7.60;;;1.20;;
23555;SDS011;11956;53.184;8.578;2023-03-14T17:33:11;8.00;;;1.33;;
23555;SDS011;11956;53.184;8.578;2023-03-14T17:36:12;13.20;;;1.80;;
23555;SDS011;11956;53.184;8.578;2023-03-14T17:39:13;6.70;;;1.50;;
23555;SDS011;11956;53.184;8.578;2023-03-14T17:42:14;5.78;;;1.33;;
23555;SDS011;11956;53.184;8.578;2023-03-14T17:45:15;5.63;;;1.30;;
23555;SDS011;11956;53.184;8.578;2023-03-14T17:48:17;9.50;;;1.45;;
23555;SDS011;11956;53.184;8.578;2023-03-14T17:51:18;6.22;;;1.17;;
23555;SDS011;11956;53.184;8.578;2023-03-14T17:54:20;9.48;;;1.60;;
23555;SDS011;11956;53.184;8.578;2023-03-14T17:57:22;9.88;;;1.88;;
23555;SDS011;11956;53.184;8.578;2023-03-14T18:00:23;7.38;;;1.75;;
23555;SDS011;11956;53.184;8.578;2023-03-14T18:03:25;7.68;;;1.23;;
23555;SDS011;11956;53.184;8.578;2023-03-14T18:06:26;5.78;;;1.20;;
23555;SDS011;11956;53.184;8.578;2023-03-14T18:09:29;6.57;;;1.42;;
23555;SDS011;11956;53.184;8.578;2023-03-14T18:12:31;9.23;;;1.27;;
23555;SDS011;11956;53.184;8.578;2023-03-14T18:15:33;7.63;;;1.20;;
23555;SDS011;11956;53.184;8.578;2023-03-14T18:18:34;9.02;;;1.65;;
23555;SDS011;11956;53.184;8.578;2023-03-14T18:21:36;10.32;;;1.85;;
23555;SDS011;11956;53.184;8.578;2023-03-14T18:24:40;7.03;;;1.23;;
23555;SDS011;11956;53.184;8.578;2023-03-14T18:27:42;9.02;;;1.88;;
23555;SDS011;11956;53.184;8.578;2023-03-14T18:30:43;8.27;;;1.13;;
23555;SDS011;11956;53.184;8.578;2023-03-14T18:33:51;9.13;;;1.80;;
23555;SDS011;11956;53.184;8.578;2023-03-14T18:36:54;7.63;;;1.67;;
23555;SDS011;11956;53.184;8.578;2023-03-14T18:39:55;9.63;;;1.77;;
23555;SDS011;11956;53.184;8.578;2023-03-14T18:42:56;11.63;;;2.00;;
23555;SDS011;11956;53.184;8.578;2023-03-14T18:45:57;8.15;;;1.63;;
23555;SDS011;11956;53.184;8.578;2023-03-14T18:48:59;7.15;;;1.67;;
23555;SDS011;11956;53.184;8.578;2023-03-14T18:52:03;8.85;;;1.70;;
23555;SDS011;11956;53.184;8.578;2023-03-14T18:55:04;8.20;;;1.88;;
23555;SDS011;11956;53.184;8.578;2023-03-14T18:58:05;10.60;;;2.85;;
23555;SDS011;11956;53.184;8.578;2023-03-14T19:01:06;7.95;;;1.85;;
23555;SDS011;11956;53.184;8.578;2023-03-14T19:04:07;10.43;;;1.45;;
23555;SDS011;11956;53.184;8.578;2023-03-14T19:07:09;7.97;;;1.98;;
23555;SDS011;11956;53.184;8.578;2023-03-14T19:13:13;9.55;;;1.33;;
23555;SDS011;11956;53.184;8.578;2023-03-14T19:16:14;7.05;;;1.00;;
23555;SDS011;11956;53.184;8.578;2023-03-14T19:19:15;6.32;;;1.35;;
23555;SDS011;11956;53.184;8.578;2023-03-14T19:22:16;5.95;;;1.27;;
23555;SDS011;11956;53.184;8.578;2023-03-14T19:25:17;9.85;;;1.20;;
23555;SDS011;11956;53.184;8.578;2023-03-14T19:28:18;8.40;;;1.30;;
23555;SDS011;11956;53.184;8.578;2023-03-14T19:31:20;14.23;;;1.60;;
23555;SDS011;11956;53.184;8.578;2023-03-14T19:34:21;6.93;;;1.55;;
23555;SDS011;11956;53.184;8.578;2023-03-14T19:37:21;10.15;;;2.20;;
23555;SDS011;11956;53.184;8.578;2023-03-14T19:40:22;11.57;;;2.20;;
23555;SDS011;11956;53.184;8.578;2023-03-14T19:43:24;9.50;;;1.52;;
23555;SDS011;11956;53.184;8.578;2023-03-14T19:46:25;5.53;;;1.25;;
23555;SDS011;11956;53.184;8.578;2023-03-14T19:49:26;6.32;;;1.40;;
23555;SDS011;11956;53.184;8.578;2023-03-14T19:52:27;10.18;;;2.17;;
23555;SDS011;11956;53.184;8.578;2023-03-14T19:55:28;11.35;;;2.28;;
23555;SDS011;11956;53.184;8.578;2023-03-14T19:58:33;12.38;;;1.80;;
23555;SDS011;11956;53.184;8.578;2023-03-14T20:01:34;8.52;;;2.03;;
23555;SDS011;11956;53.184;8.578;2023-03-14T20:04:35;7.18;;;1.80;;